createdAt,value
2022-11-01T00:03:07.143Z,10.82
2022-11-01T00:06:13.758Z,10.81
2022-11-01T00:09:22.354Z,10.81
2022-11-01T00:12:28.995Z,10.78
2022-11-01T00:15:34.834Z,10.77
2022-11-01T00:18:43.060Z,10.75
2022-11-01T00:21:48.849Z,10.75
2022-11-01T00:24:58.154Z,10.75
2022-11-01T00:28:04.072Z,10.74
2022-11-01T00:31:12.812Z,10.75
2022-11-01T00:34:19.012Z,10.76
2022-11-01T00:37:25.522Z,10.77
2022-11-01T00:40:33.966Z,10.78
2022-11-01T00:43:40.643Z,10.79
2022-11-01T00:46:46.244Z,10.82
2022-11-01T00:49:53.242Z,10.82
2022-11-01T00:52:58.949Z,10.84
2022-11-01T00:56:11.153Z,10.84
2022-11-01T00:59:16.881Z,10.85
2022-11-01T01:02:23.475Z,10.86
2022-11-01T01:05:29.635Z,10.85
2022-11-01T01:08:37.384Z,10.86
2022-11-01T01:11:45.894Z,10.85
2022-11-01T01:14:52.638Z,10.85
2022-11-01T01:18:14.150Z,10.83
2022-11-01T01:21:34.739Z,10.84
2022-11-01T01:24:55.283Z,10.81
2022-11-01T01:28:18.872Z,10.73
2022-11-01T01:31:41.023Z,10.63
2022-11-01T01:35:10.791Z,10.56
2022-11-01T01:38:34.977Z,10.53
2022-11-01T01:42:01.360Z,10.54
2022-11-01T01:45:33.894Z,10.56
2022-11-01T01:48:59.629Z,10.54
2022-11-01T01:52:20.484Z,10.47
2022-11-01T01:55:44.904Z,10.37
2022-11-01T01:59:08.762Z,10.23
2022-11-01T02:02:32.403Z,10.09
2022-11-01T02:05:56.423Z,9.92
2022-11-01T02:09:19.390Z,9.78
2022-11-01T02:12:42.463Z,9.70
2022-11-01T02:16:36.546Z,9.70
2022-11-01T02:20:23.995Z,9.71
2022-11-01T02:24:06.572Z,9.70
2022-11-01T02:27:36.364Z,9.73
2022-11-01T02:31:08.378Z,9.82
2022-11-01T02:34:27.781Z,9.90
2022-11-01T02:37:43.003Z,9.93
2022-11-01T02:40:55.801Z,9.73
2022-11-01T02:44:06.578Z,9.52
2022-11-01T02:47:14.344Z,9.35
2022-11-01T02:50:23.545Z,9.25
2022-11-01T02:53:30.682Z,9.22
2022-11-01T02:56:36.567Z,9.24
2022-11-01T02:59:47.664Z,9.14
2022-11-01T03:02:58.721Z,9.06
2022-11-01T03:06:18.836Z,9.06
2022-11-01T03:09:24.848Z,9.06
2022-11-01T03:12:38.469Z,9.13
2022-11-01T03:15:55.741Z,9.12
2022-11-01T03:19:09.807Z,9.14
2022-11-01T03:22:26.228Z,9.26
2022-11-01T03:25:44.541Z,9.31
2022-11-01T03:32:08.109Z,9.34
2022-11-01T03:35:18.910Z,9.39
2022-11-01T03:38:32.584Z,9.45
2022-11-01T03:41:45.334Z,9.47
2022-11-01T03:44:59.647Z,9.47
2022-11-01T03:48:07.206Z,9.48
2022-11-01T03:51:13.851Z,9.50
2022-11-01T03:54:22.254Z,9.54
2022-11-01T03:57:29.244Z,9.54
2022-11-01T04:00:36.687Z,9.67
2022-11-01T04:03:43.732Z,9.77
2022-11-01T04:06:49.588Z,9.87
2022-11-01T04:09:59.065Z,9.98
2022-11-01T04:13:06.029Z,10.09
2022-11-01T04:16:29.088Z,10.14
2022-11-01T04:19:50.920Z,10.16
2022-11-01T04:22:57.785Z,10.14
2022-11-01T04:26:10.024Z,10.17
2022-11-01T04:29:16.525Z,10.18
2022-11-01T04:32:22.068Z,10.15
2022-11-01T04:35:28.546Z,10.16
2022-11-01T04:38:34.185Z,10.19
2022-11-01T04:41:43.414Z,10.21
2022-11-01T04:44:49.961Z,10.27
2022-11-01T04:48:07.121Z,10.34
2022-11-01T04:51:25.567Z,10.29
2022-11-01T04:54:35.712Z,10.23
2022-11-01T04:57:47.123Z,10.24
2022-11-01T05:00:53.648Z,10.27
2022-11-01T05:03:59.279Z,10.30
2022-11-01T05:07:07.581Z,10.33
2022-11-01T05:10:14.091Z,10.26
2022-11-01T05:13:23.494Z,10.26
2022-11-01T05:16:29.100Z,10.27
2022-11-01T05:19:37.235Z,10.29
2022-11-01T05:22:45.373Z,10.32
2022-11-01T05:25:52.085Z,10.32
2022-11-01T05:29:08.725Z,10.43
2022-11-01T05:32:15.953Z,10.50
2022-11-01T05:35:22.033Z,10.51
2022-11-01T05:38:28.483Z,10.55
2022-11-01T05:41:34.141Z,10.58
2022-11-01T05:44:43.514Z,10.61
2022-11-01T05:47:49.117Z,10.68
2022-11-01T05:50:55.564Z,10.69
2022-11-01T05:54:01.320Z,10.70
2022-11-01T05:57:09.327Z,10.71
2022-11-01T06:00:18.275Z,10.71
2022-11-01T06:03:24.744Z,10.75
2022-11-01T06:06:31.556Z,10.83
2022-11-01T06:09:40.774Z,10.91
2022-11-01T06:12:46.365Z,10.99
2022-11-01T06:16:03.278Z,11.07
2022-11-01T06:19:08.979Z,11.05
2022-11-01T06:22:15.521Z,11.03
2022-11-01T06:25:25.726Z,11.03
2022-11-01T06:28:34.309Z,11.07
2022-11-01T06:31:42.756Z,11.05
2022-11-01T06:34:49.307Z,11.06
2022-11-01T06:37:54.925Z,11.12
2022-11-01T06:41:03.616Z,11.08
2022-11-01T06:44:09.344Z,10.99
2022-11-01T06:47:18.558Z,11.00
2022-11-01T06:50:26.808Z,10.97
2022-11-01T06:53:33.802Z,10.89
2022-11-01T06:56:39.368Z,10.84
2022-11-01T06:59:45.887Z,10.84
2022-11-01T07:03:00.969Z,10.84
2022-11-01T07:06:09.163Z,10.87
2022-11-01T07:09:15.016Z,10.94
2022-11-01T07:12:21.629Z,11.04
2022-11-01T07:15:27.264Z,11.14
2022-11-01T07:18:36.500Z,11.24
2022-11-01T07:21:42.184Z,11.33
2022-11-01T07:24:48.922Z,11.35
2022-11-01T07:27:55.258Z,11.28
2022-11-01T07:31:03.311Z,11.24
2022-11-01T07:34:11.865Z,11.21
2022-11-01T07:37:18.301Z,11.21
2022-11-01T07:40:27.782Z,11.21
2022-11-01T07:43:35.969Z,11.25
2022-11-01T07:46:41.598Z,11.29
2022-11-01T07:49:51.201Z,11.33
2022-11-01T07:53:03.330Z,11.37
2022-11-01T07:56:10.809Z,11.46
2022-11-01T07:59:16.427Z,11.51
2022-11-01T08:02:25.806Z,11.59
2022-11-01T08:05:37.555Z,11.70
2022-11-01T08:08:45.185Z,11.81
2022-11-01T08:11:51.007Z,11.93
2022-11-01T08:14:57.476Z,12.06
2022-11-01T08:18:03.977Z,12.13
2022-11-01T08:21:18.902Z,12.17
2022-11-01T08:24:24.591Z,12.32
2022-11-01T08:27:32.879Z,12.36
2022-11-01T08:30:41.397Z,12.42
2022-11-01T08:33:48.563Z,12.40
2022-11-01T08:36:57.682Z,12.45
2022-11-01T08:40:04.099Z,12.49
2022-11-01T08:43:09.979Z,12.45
2022-11-01T08:46:16.703Z,12.47
2022-11-01T08:49:22.280Z,12.56
2022-11-01T08:52:31.622Z,12.62
2022-11-01T08:55:38.454Z,12.57
2022-11-01T08:58:45.104Z,12.63
2022-11-01T09:01:51.309Z,12.72
2022-11-01T09:04:57.846Z,12.85
2022-11-01T09:08:07.080Z,12.96
2022-11-01T09:11:13.889Z,13.13
2022-11-01T09:14:20.677Z,13.36
2022-11-01T09:17:27.758Z,13.54
2022-11-01T09:20:33.406Z,13.56
2022-11-01T09:23:42.613Z,13.43
2022-11-01T09:26:48.585Z,13.37
2022-11-01T09:29:55.102Z,13.40
2022-11-01T09:33:01.248Z,13.39
2022-11-01T09:36:09.123Z,13.35
2022-11-01T09:39:22.246Z,13.30
2022-11-01T09:42:34.648Z,13.37
2022-11-01T09:45:40.510Z,13.48
2022-11-01T09:48:48.116Z,13.69
2022-11-01T09:51:54.503Z,13.80
2022-11-01T09:55:03.819Z,13.78
2022-11-01T09:58:18.433Z,13.69
2022-11-01T10:01:41.381Z,13.46
2022-11-01T10:05:03.732Z,13.26
2022-11-01T10:08:17.086Z,13.11
2022-11-01T10:11:43.270Z,13.07
2022-11-01T10:15:03.526Z,12.99
2022-11-01T10:18:19.517Z,13.01
2022-11-01T10:21:29.714Z,12.99
2022-11-01T10:24:39.653Z,13.03
2022-11-01T10:27:56.542Z,13.12
2022-11-01T10:31:06.842Z,13.18
2022-11-01T10:34:22.749Z,13.27
2022-11-01T10:37:32.148Z,13.34
2022-11-01T10:40:44.523Z,13.35
2022-11-01T10:43:55.682Z,13.40
2022-11-01T10:47:07.260Z,13.49
2022-11-01T10:50:20.720Z,13.58
2022-11-01T10:53:27.734Z,13.66
2022-11-01T10:56:41.920Z,13.66
2022-11-01T10:59:51.551Z,13.66
2022-11-01T11:03:00.031Z,13.64
2022-11-01T11:06:15.663Z,13.60
2022-11-01T11:09:28.031Z,13.63
2022-11-01T11:12:34.864Z,13.73
2022-11-01T11:15:48.462Z,13.74
2022-11-01T11:19:06.870Z,13.85
2022-11-01T11:22:12.794Z,13.91
2022-11-01T11:25:22.066Z,13.85
2022-11-01T11:28:32.932Z,13.87
2022-11-01T11:31:42.225Z,13.97
2022-11-01T11:34:56.236Z,14.06
2022-11-01T11:38:06.799Z,14.13
2022-11-01T11:41:14.337Z,14.21
2022-11-01T11:44:47.514Z,14.22
2022-11-01T11:47:58.997Z,14.31
2022-11-01T11:51:09.253Z,14.45
2022-11-01T11:54:25.459Z,14.53
2022-11-01T11:57:32.091Z,14.44
2022-11-01T12:00:41.244Z,14.36
2022-11-01T12:03:55.657Z,14.09
2022-11-01T12:07:03.025Z,13.87
2022-11-01T12:10:30.623Z,13.87
2022-11-01T12:13:38.897Z,13.87
2022-11-01T12:16:45.886Z,13.82
2022-11-01T12:20:03.258Z,13.80
2022-11-01T12:23:17.420Z,13.80
2022-11-01T12:26:24.796Z,13.88
2022-11-01T12:29:37.002Z,13.96
2022-11-01T12:32:50.128Z,13.91
2022-11-01T12:36:03.819Z,13.98
2022-11-01T12:39:26.829Z,13.95
2022-11-01T12:42:40.296Z,13.92
2022-11-01T12:45:53.051Z,14.01
2022-11-01T12:49:06.824Z,13.88
2022-11-01T12:52:22.853Z,13.81
2022-11-01T12:55:35.123Z,13.74
2022-11-01T12:58:41.268Z,13.71
2022-11-01T13:01:55.625Z,13.73
2022-11-01T13:05:06.991Z,13.75
2022-11-01T13:08:24.052Z,13.64
2022-11-01T13:11:37.824Z,13.62
2022-11-01T13:14:59.534Z,13.72
2022-11-01T13:18:16.416Z,13.76
2022-11-01T13:21:34.474Z,13.79
2022-11-01T13:24:49.015Z,13.77
2022-11-01T13:28:04.561Z,13.80
2022-11-01T13:31:20.660Z,13.82
2022-11-01T13:34:42.629Z,13.87
2022-11-01T13:37:54.505Z,13.86
2022-11-01T13:41:19.815Z,13.81
2022-11-01T13:44:28.569Z,13.78
2022-11-01T13:47:47.934Z,13.81
2022-11-01T13:51:21.717Z,13.75
2022-11-01T13:54:33.182Z,13.58
2022-11-01T13:57:45.258Z,13.44
2022-11-01T14:00:54.662Z,13.41
2022-11-01T14:04:49.436Z,13.37
2022-11-01T14:08:30.703Z,13.25
2022-11-01T14:11:51.385Z,13.12
2022-11-01T14:15:13.622Z,13.05
2022-11-01T14:18:19.249Z,13.00
2022-11-01T14:21:32.336Z,12.95
2022-11-01T14:24:56.378Z,12.93
2022-11-01T14:28:24.035Z,12.93
2022-11-01T14:31:35.759Z,12.92
2022-11-01T14:34:46.763Z,12.87
2022-11-01T14:37:55.576Z,12.78
2022-11-01T14:41:03.325Z,12.81
2022-11-01T14:44:15.029Z,12.76
2022-11-01T14:47:35.683Z,12.68
2022-11-01T14:50:51.139Z,12.61
2022-11-01T14:54:03.810Z,12.51
2022-11-01T14:57:26.066Z,12.41
2022-11-01T15:00:35.126Z,12.36
2022-11-01T15:03:46.603Z,12.36
2022-11-01T15:06:53.942Z,12.31
2022-11-01T15:10:05.719Z,12.22
2022-11-01T15:13:18.129Z,12.16
2022-11-01T15:16:26.911Z,12.08
2022-11-01T15:19:40.533Z,12.04
2022-11-01T15:22:46.207Z,12.02
2022-11-01T15:25:55.304Z,11.97
2022-11-01T15:29:03.334Z,11.90
2022-11-01T15:32:09.849Z,11.85
2022-11-01T15:35:26.830Z,11.86
2022-11-01T15:38:36.763Z,11.82
2022-11-01T15:41:42.740Z,11.79
2022-11-01T15:44:49.719Z,11.71
2022-11-01T15:47:56.459Z,11.65
2022-11-01T15:51:09.214Z,11.61
2022-11-01T15:54:26.806Z,11.59
2022-11-01T15:57:41.461Z,11.53
2022-11-01T16:00:51.119Z,11.53
2022-11-01T16:04:00.291Z,11.50
2022-11-01T16:07:15.403Z,11.49
2022-11-01T16:10:25.704Z,11.40
2022-11-01T16:13:34.275Z,11.32
2022-11-01T16:16:59.269Z,11.28
2022-11-01T16:20:27.386Z,11.22
2022-11-01T16:23:37.042Z,11.21
2022-11-01T16:27:03.902Z,11.21
2022-11-01T16:30:46.517Z,11.20
2022-11-01T16:33:53.857Z,11.17
2022-11-01T16:37:00.553Z,11.14
2022-11-01T16:40:30.259Z,11.12
2022-11-01T16:43:37.990Z,11.09
2022-11-01T16:46:44.470Z,11.04
2022-11-01T16:49:54.773Z,11.02
2022-11-01T16:53:00.442Z,11.00
2022-11-01T16:56:35.675Z,10.98
2022-11-01T16:59:44.743Z,10.94
2022-11-01T17:02:51.548Z,10.91
2022-11-01T17:05:57.665Z,10.86
2022-11-01T17:09:04.268Z,10.84
2022-11-01T17:12:14.247Z,10.81
2022-11-01T17:15:21.152Z,10.77
2022-11-01T17:18:31.989Z,10.74
2022-11-01T17:21:41.941Z,10.74
2022-11-01T17:24:49.090Z,10.70
2022-11-01T17:27:58.576Z,10.69
2022-11-01T17:31:04.182Z,10.71
2022-11-01T17:34:10.634Z,10.68
2022-11-01T17:37:19.101Z,10.70
2022-11-01T17:40:27.686Z,10.67
2022-11-01T17:43:36.056Z,10.64
2022-11-01T17:46:42.986Z,10.64
2022-11-01T17:49:48.634Z,10.64
2022-11-01T17:52:55.086Z,10.65
2022-11-01T17:56:00.766Z,10.62
2022-11-01T17:59:12.826Z,10.63
2022-11-01T18:02:18.787Z,10.62
2022-11-01T18:05:25.733Z,10.61
2022-11-01T18:08:34.057Z,10.62
2022-11-01T18:11:45.123Z,10.63
2022-11-01T18:15:00.665Z,10.66
2022-11-01T18:18:26.727Z,10.67
2022-11-01T18:21:39.525Z,10.65
2022-11-01T18:24:50.768Z,10.67
2022-11-01T18:27:58.331Z,10.65
2022-11-01T18:31:15.487Z,10.65
2022-11-01T18:34:30.569Z,10.62
2022-11-01T18:37:44.665Z,10.61
2022-11-01T18:40:59.420Z,10.57
2022-11-01T18:44:13.789Z,10.56
2022-11-01T18:47:25.297Z,10.57
2022-11-01T18:50:31.896Z,10.56
2022-11-01T18:53:37.526Z,10.53
2022-11-01T18:56:50.311Z,10.49
2022-11-01T18:59:57.223Z,10.47
2022-11-01T19:03:13.705Z,10.48
2022-11-01T19:06:22.963Z,10.46
2022-11-01T19:09:30.821Z,10.46
2022-11-01T19:12:41.349Z,10.45
2022-11-01T19:15:53.923Z,10.45
2022-11-01T19:19:03.352Z,10.48
2022-11-01T19:22:28.948Z,10.50
2022-11-01T19:25:38.527Z,10.51
2022-11-01T19:28:44.975Z,10.53
2022-11-01T19:31:58.467Z,10.53
2022-11-01T19:35:20.950Z,10.55
2022-11-01T19:38:27.886Z,10.55
2022-11-01T19:41:37.889Z,10.59
2022-11-01T19:44:43.974Z,10.57
2022-11-01T19:47:53.302Z,10.57
2022-11-01T19:51:03.625Z,10.58
2022-11-01T19:54:14.181Z,10.56
2022-11-01T19:57:29.980Z,10.60
2022-11-01T20:00:36.534Z,10.61
2022-11-01T20:03:46.153Z,10.62
2022-11-01T20:07:01.397Z,10.64
2022-11-01T20:10:09.439Z,10.69
2022-11-01T20:13:15.967Z,10.70
2022-11-01T20:16:21.823Z,10.67
2022-11-01T20:19:28.602Z,10.60
2022-11-01T20:22:37.874Z,10.59
2022-11-01T20:25:44.325Z,10.55
2022-11-01T20:28:50.436Z,10.49
2022-11-01T20:31:56.950Z,10.48
2022-11-01T20:35:03.336Z,10.51
2022-11-01T20:38:12.820Z,10.54
2022-11-01T20:41:19.312Z,10.56
2022-11-01T20:44:25.810Z,10.56
2022-11-01T20:47:31.841Z,10.59
2022-11-01T20:50:38.817Z,10.62
2022-11-01T20:53:47.206Z,10.68
2022-11-01T20:56:53.795Z,10.72
2022-11-01T20:59:59.988Z,10.74
2022-11-01T21:03:16.520Z,10.80
2022-11-01T21:06:22.383Z,10.85
2022-11-01T21:09:35.127Z,10.92
2022-11-01T21:12:47.756Z,10.97
2022-11-01T21:15:55.539Z,11.02
2022-11-01T21:19:06.263Z,11.08
2022-11-01T21:22:21.100Z,11.16
2022-11-01T21:25:30.028Z,11.19
2022-11-01T21:28:40.391Z,11.19
2022-11-01T21:31:46.433Z,11.23
2022-11-01T21:34:54.513Z,11.27
2022-11-01T21:38:00.230Z,11.34
2022-11-01T21:41:27.131Z,11.38
2022-11-01T21:44:39.820Z,11.40
2022-11-01T21:47:46.439Z,11.41
2022-11-01T21:50:52.179Z,11.42
2022-11-01T21:54:01.763Z,11.42
2022-11-01T21:57:14.456Z,11.41
2022-11-01T22:00:20.991Z,11.42
2022-11-01T22:03:26.790Z,11.45
2022-11-01T22:06:33.868Z,11.46
2022-11-01T22:09:39.970Z,11.49
2022-11-01T22:12:49.588Z,11.48
2022-11-01T22:15:55.600Z,11.47
2022-11-01T22:19:03.219Z,11.50
2022-11-01T22:22:08.969Z,11.54
2022-11-01T22:25:15.736Z,11.59
2022-11-01T22:28:24.252Z,11.59
2022-11-01T22:31:30.927Z,11.59
2022-11-01T22:34:37.007Z,11.58
2022-11-01T22:37:44.385Z,11.56
2022-11-01T22:44:16.306Z,11.51
2022-11-01T22:47:27.905Z,11.48
2022-11-01T22:50:34.480Z,11.48
2022-11-01T22:53:40.466Z,11.41
2022-11-01T22:56:47.495Z,11.44
2022-11-01T22:59:59.377Z,11.40
2022-11-01T23:03:17.759Z,11.44
2022-11-01T23:06:37.387Z,11.43
2022-11-01T23:09:46.588Z,11.39
2022-11-01T23:13:09.870Z,11.37
2022-11-01T23:16:38.614Z,11.36
2022-11-01T23:19:46.012Z,11.33
2022-11-01T23:22:52.643Z,11.32
2022-11-01T23:26:03.541Z,11.34
2022-11-01T23:29:10.162Z,11.34
2022-11-01T23:32:18.721Z,11.35
2022-11-01T23:35:25.569Z,11.36
2022-11-01T23:38:37.860Z,11.36
2022-11-01T23:41:46.563Z,11.36
2022-11-01T23:44:55.077Z,11.32
2022-11-01T23:48:06.366Z,11.36
2022-11-01T23:51:16.058Z,11.38
2022-11-01T23:54:27.214Z,11.36
2022-11-01T23:57:33.093Z,11.37
